Time;durP1;ratioP1;P1;durP2;ratioP2;P2;SDS_P1;SDS_P2;PMS_P1;PMS_P2;Temp;Humidity;BMP_temperature;BMP_pressure;BME280_temperature;BME280_humidity;BME280_pressure;Samples;Min_cycle;Max_cycle;Signal;HPM_P1;HPM_P2
2022/10/14 00:00:40;;;;;;;26.58;20.70;;;;;;;11.85;100.00;101335.56;6278440;22;20007;-82
2022/10/14 00:03:05;;;;;;;26.48;21.55;;;;;;;11.85;100.00;101336.44;6305586;22;20071;-83
2022/10/14 00:05:30;;;;;;;27.50;21.58;;;;;;;11.82;100.00;101322.34;6303307;22;20408;-83
2022/10/14 00:07:56;;;;;;;27.23;21.63;;;;;;;11.84;100.00;101328.50;6301899;22;20003;-83
2022/10/14 00:10:21;;;;;;;27.95;21.60;;;;;;;11.83;100.00;101332.09;6303322;22;20027;-83
2022/10/14 00:12:47;;;;;;;25.00;20.50;;;;;;;11.85;100.00;101332.91;6303379;22;20440;-83
2022/10/14 00:15:12;;;;;;;28.10;20.58;;;;;;;11.80;100.00;101327.75;6302998;22;20030;-83
2022/10/14 00:17:38;;;;;;;27.13;21.20;;;;;;;11.84;100.00;101334.72;6300984;22;20007;-82
2022/10/14 00:20:04;;;;;;;23.75;19.63;;;;;;;11.81;100.00;101329.47;6301616;22;20080;-82
2022/10/14 00:22:29;;;;;;;25.60;20.10;;;;;;;11.82;100.00;101328.53;6275109;22;20086;-82
2022/10/14 00:24:54;;;;;;;25.35;19.50;;;;;;;11.76;100.00;101331.50;6276095;22;20002;-82
2022/10/14 00:27:20;;;;;;;23.58;20.10;;;;;;;11.78;100.00;101334.94;6301344;22;20003;-82
2022/10/14 00:29:45;;;;;;;24.90;20.05;;;;;;;11.74;100.00;101330.69;6303716;22;20009;-83
2022/10/14 00:32:11;;;;;;;26.45;20.88;;;;;;;11.76;100.00;101338.66;6303348;22;20030;-83
2022/10/14 00:34:36;;;;;;;27.75;20.58;;;;;;;11.73;100.00;101336.97;6303121;22;19995;-84
2022/10/14 00:37:01;;;;;;;26.98;20.58;;;;;;;11.75;100.00;101340.47;6274703;22;20010;-83
2022/10/14 00:39:26;;;;;;;27.08;20.10;;;;;;;11.75;100.00;101335.13;6304644;22;20003;-83
2022/10/14 00:41:52;;;;;;;29.13;20.20;;;;;;;11.74;100.00;101328.03;6303081;22;20061;-82
2022/10/14 00:44:17;;;;;;;27.95;20.83;;;;;;;11.73;100.00;101327.19;6274698;22;20106;-83
2022/10/14 00:46:45;;;;;;;28.88;21.10;;;;;;;11.72;100.00;101314.78;6275268;22;20444;-81
2022/10/14 00:49:17;;;;;;;23.17;18.85;;;;;;;11.72;100.00;101319.25;6302991;22;20104;-83
2022/10/14 00:51:47;;;;;;;28.40;21.27;;;;;;;11.72;100.00;101313.94;6303848;22;20007;-83
2022/10/14 00:54:15;;;;;;;29.70;21.83;;;;;;;11.69;100.00;101309.59;6303246;22;20003;-82
2022/10/14 00:56:43;;;;;;;30.55;22.15;;;;;;;11.71;100.00;101312.22;6302852;22;20094;-81
2022/10/14 00:59:08;;;;;;;27.13;21.63;;;;;;;11.71;100.00;101309.53;6282249;22;19991;-83
2022/10/14 01:01:33;;;;;;;30.65;22.58;;;;;;;11.68;100.00;101299.88;6328585;22;20022;-83
2022/10/14 01:03:59;;;;;;;28.73;22.55;;;;;;;11.68;100.00;101302.53;6326470;22;19991;-82
2022/10/14 01:06:39;;;;;;;32.28;22.05;;;;;;;11.71;100.00;101301.53;6324682;22;20018;-84
2022/10/14 01:09:14;;;;;;;27.80;21.90;;;;;;;11.71;100.00;101297.06;6315160;22;20012;-83
2022/10/14 01:12:04;;;;;;;29.48;21.42;;;;;;;11.69;100.00;101292.72;6278817;22;20014;-84
2022/10/14 01:14:52;;;;;;;27.92;22.23;;;;;;;11.60;100.00;101285.19;6321408;22;20010;-83
2022/10/14 01:17:32;;;;;;;28.48;20.58;;;;;;;11.63;100.00;101293.03;6282823;22;19999;-82
2022/10/14 01:20:16;;;;;;;29.80;22.45;;;;;;;11.67;100.00;101302.63;6307954;22;20003;-83
2022/10/14 01:22:57;;;;;;;29.92;21.30;;;;;;;11.67;100.00;101290.16;6307889;22;19999;-83
2022/10/14 01:25:33;;;;;;;27.17;20.92;;;;;;;11.68;100.00;101285.69;6308603;22;20004;-82
2022/10/14 01:28:11;;;;;;;27.23;21.35;;;;;;;11.65;100.00;101280.50;6306924;22;20003;-82
2022/10/14 01:30:45;;;;;;;28.42;21.17;;;;;;;11.64;100.00;101271.63;6306063;22;20007;-82
2022/10/14 01:33:23;;;;;;;30.30;22.20;;;;;;;11.61;100.00;101266.44;6306203;22;19999;-83
2022/10/14 01:36:14;;;;;;;32.85;22.70;;;;;;;11.62;100.00;101264.63;6304919;22;19999;-82
2022/10/14 01:38:49;;;;;;;30.33;22.38;;;;;;;11.58;100.00;101263.03;6304744;22;20068;-83
2022/10/14 01:41:27;;;;;;;30.75;21.60;;;;;;;11.55;100.00;101252.56;6276410;22;20076;-83
2022/10/14 01:43:56;;;;;;;32.78;22.20;;;;;;;11.58;100.00;101255.94;6303106;22;20014;-82
2022/10/14 01:46:24;;;;;;;32.17;22.05;;;;;;;11.57;100.00;101248.84;6302950;22;20018;-82
2022/10/14 01:48:54;;;;;;;31.10;22.55;;;;;;;11.55;100.00;101242.75;6302913;22;20014;-83
2022/10/14 01:51:29;;;;;;;33.58;22.80;;;;;;;11.59;100.00;101238.13;6304333;22;20094;-82
2022/10/14 01:54:23;;;;;;;32.90;23.67;;;;;;;11.54;100.00;101221.50;6304543;22;19999;-81
2022/10/14 01:56:49;;;;;;;;;;;;;;;11.63;100.00;101235.25;6264584;22;20341;-82
2022/10/14 01:59:17;;;;;;;33.35;23.63;;;;;;;11.61;100.00;101238.91;6303818;22;19937;-82
2022/10/14 02:01:42;;;;;;;32.97;24.10;;;;;;;11.60;100.00;101234.53;6303472;22;20015;-83
2022/10/14 02:04:19;;;;;;;33.28;24.00;;;;;;;11.57;100.00;101237.34;6275725;22;20574;-82
2022/10/14 02:07:01;;;;;;;37.33;24.02;;;;;;;11.59;100.00;101241.66;6303466;22;20007;-82
2022/10/14 02:09:39;;;;;;;36.40;23.38;;;;;;;11.57;100.00;101232.00;6305635;22;20004;-82
2022/10/14 02:12:04;;;;;;;33.15;24.00;;;;;;;11.60;100.00;101229.19;6305850;22;20344;-82
2022/10/14 02:14:48;;;;;;;34.92;25.13;;;;;;;11.61;100.00;101230.91;6304523;22;19998;-81
2022/10/14 02:17:23;;;;;;;37.28;25.52;;;;;;;11.61;100.00;101233.59;6275525;22;20011;-82
2022/10/14 02:19:51;;;;;;;35.53;24.65;;;;;;;11.62;100.00;101225.53;6304202;22;20007;-83
2022/10/14 02:22:28;;;;;;;37.67;24.55;;;;;;;11.64;100.00;101231.63;6303834;22;20002;-82
2022/10/14 02:24:59;;;;;;;36.58;24.33;;;;;;;11.61;100.00;101214.91;6275789;22;20060;-82
2022/10/14 02:27:27;;;;;;;36.28;24.00;;;;;;;11.65;100.00;101224.50;6303407;22;20010;-83
2022/10/14 02:29:54;;;;;;;34.30;22.98;;;;;;;11.62;100.00;101216.63;6276128;22;20030;-83
2022/10/14 02:32:22;;;;;;;33.40;24.63;;;;;;;11.67;100.00;101222.63;6303190;22;20053;-83
2022/10/14 02:34:51;;;;;;;33.38;23.80;;;;;;;11.66;100.00;101215.53;6304402;22;20006;-83
2022/10/14 02:37:19;;;;;;;31.48;23.70;;;;;;;11.65;100.00;101216.50;6303915;22;20493;-83
2022/10/14 02:39:59;;;;;;;31.88;24.00;;;;;;;11.67;100.00;101217.31;6277680;22;20003;-82
2022/10/14 02:42:26;;;;;;;34.58;24.08;;;;;;;11.65;100.00;101206.69;6276458;22;20022;-82
2022/10/14 02:44:54;;;;;;;32.83;24.25;;;;;;;11.68;100.00;101216.34;6303945;22;20003;-82
2022/10/14 02:47:20;;;;;;;32.67;23.70;;;;;;;11.67;100.00;101215.50;6276373;22;19999;-82
2022/10/14 02:49:46;;;;;;;32.58;23.00;;;;;;;11.70;100.00;101206.47;6305274;22;20014;-82
2022/10/14 02:52:11;;;;;;;31.83;22.77;;;;;;;11.71;100.00;101208.22;6306356;22;19999;-81
2022/10/14 02:54:36;;;;;;;34.72;23.35;;;;;;;11.70;100.00;101204.69;6304033;22;20006;-82
2022/10/14 02:57:01;;;;;;;32.17;23.27;;;;;;;11.72;100.00;101201.94;6302230;22;20057;-84
2022/10/14 02:59:27;;;;;;;32.22;23.05;;;;;;;11.73;100.00;101201.84;6304873;22;19999;-82
2022/10/14 03:01:52;;;;;;;29.13;22.10;;;;;;;11.70;100.00;101198.47;6303995;22;20367;-82
2022/10/14 03:04:17;;;;;;;33.05;23.00;;;;;;;11.70;100.00;101198.47;6304702;22;20082;-82
2022/10/14 03:06:43;;;;;;;32.47;23.73;;;;;;;11.69;100.00;101194.94;6303631;22;20037;-83
2022/10/14 03:09:08;;;;;;;31.83;21.88;;;;;;;11.67;100.00;101190.63;6303871;22;20000;-83
2022/10/14 03:11:33;;;;;;;31.75;22.08;;;;;;;11.66;100.00;101192.44;6303617;22;20057;-83
2022/10/14 03:13:58;;;;;;;30.80;22.52;;;;;;;11.62;100.00;101177.53;6303424;22;20459;-82
2022/10/14 03:16:24;;;;;;;32.03;21.20;;;;;;;11.61;100.00;101170.44;6301653;22;20019;-82
2022/10/14 03:18:49;;;;;;;31.23;21.30;;;;;;;11.61;100.00;101167.78;6277293;22;20007;-82
2022/10/14 03:21:14;;;;;;;33.38;22.65;;;;;;;11.63;100.00;101176.59;6303100;22;19999;-83
2022/10/14 03:23:39;;;;;;;32.10;21.88;;;;;;;11.68;100.00;101179.03;6304223;22;20054;-81
2022/10/14 03:26:05;;;;;;;31.98;21.75;;;;;;;11.66;100.00;101170.22;6302837;22;20003;-83
2022/10/14 03:28:30;;;;;;;32.95;21.73;;;;;;;11.67;100.00;101178.16;6304487;22;20013;-83
2022/10/14 03:30:55;;;;;;;30.58;21.35;;;;;;;11.67;100.00;101166.63;6303944;22;20026;-84
2022/10/14 03:33:21;;;;;;;30.45;20.15;;;;;;;11.66;100.00;101171.13;6305497;22;20015;-84
2022/10/14 03:35:46;;;;;;;30.38;20.52;;;;;;;11.70;100.00;101166.47;6306045;22;20052;-82
2022/10/14 03:38:11;;;;;;;29.13;20.40;;;;;;;11.68;100.00;101163.88;6304236;22;19996;-83
2022/10/14 03:40:36;;;;;;;28.05;20.48;;;;;;;11.72;100.00;101161.94;6304319;22;20408;-84
2022/10/14 03:43:02;;;;;;;26.63;19.45;;;;;;;11.66;100.00;101160.44;6276310;22;20034;-83
2022/10/14 03:45:27;;;;;;;27.35;19.98;;;;;;;11.72;100.00;101156.59;6303096;22;20085;-83
2022/10/14 03:47:53;;;;;;;25.20;19.30;;;;;;;11.69;100.00;101151.41;6309198;22;20007;-84
2022/10/14 03:50:19;;;;;;;25.38;19.02;;;;;;;11.72;100.00;101152.13;6312039;22;20049;-83
2022/10/14 03:52:44;;;;;;;27.38;19.63;;;;;;;11.73;100.00;101150.31;6312464;22;20003;-82
2022/10/14 03:55:09;;;;;;;25.05;17.95;;;;;;;11.73;100.00;101150.31;6311996;22;20010;-82
2022/10/14 03:57:35;;;;;;;25.55;19.17;;;;;;;11.72;100.00;101148.59;6307696;22;20052;-83
2022/10/14 04:00:00;;;;;;;30.33;19.45;;;;;;;11.73;100.00;101139.66;6307128;22;20003;-83
2022/10/14 04:02:25;;;;;;;26.73;19.45;;;;;;;11.74;100.00;101138.69;6307378;22;20011;-82
2022/10/14 04:04:51;;;;;;;24.15;18.55;;;;;;;11.72;100.00;101137.94;6305973;22;20053;-82
2022/10/14 04:07:16;;;;;;;25.00;18.15;;;;;;;11.74;100.00;101144.03;6305801;22;20278;-82
2022/10/14 04:09:41;;;;;;;25.15;18.30;;;;;;;11.75;100.00;101143.13;6307736;22;20455;-82
2022/10/14 04:12:06;;;;;;;25.70;18.10;;;;;;;11.77;100.00;101140.34;6305875;22;20064;-82
2022/10/14 04:14:32;;;;;;;24.80;18.20;;;;;;;11.73;100.00;101135.19;6304481;22;20429;-83
2022/10/14 04:16:57;;;;;;;23.05;16.95;;;;;;;11.75;100.00;101126.25;6276993;22;20029;-82
2022/10/14 04:19:23;;;;;;;22.40;17.33;;;;;;;11.76;100.00;101128.84;6303203;22;20013;-82
2022/10/14 04:21:48;;;;;;;21.13;16.90;;;;;;;11.74;100.00;101133.38;6302576;22;20431;-82
2022/10/14 04:24:14;;;;;;;22.33;16.48;;;;;;;11.78;100.00;101142.06;6300966;22;20011;-83
2022/10/14 04:26:39;;;;;;;23.35;16.88;;;;;;;11.77;100.00;101132.34;6274298;22;20102;-83
2022/10/14 04:29:05;;;;;;;22.73;17.00;;;;;;;11.78;100.00;101131.41;6300198;22;20013;-83
2022/10/14 04:31:30;;;;;;;21.92;16.98;;;;;;;11.81;100.00;101140.13;6302538;22;20007;-83
2022/10/14 04:33:55;;;;;;;20.90;16.30;;;;;;;11.78;100.00;101121.59;6301572;22;19999;-83
2022/10/14 04:36:21;;;;;;;22.27;15.75;;;;;;;11.78;100.00;101118.94;6297988;22;20014;-83
2022/10/14 04:38:46;;;;;;;21.23;16.55;;;;;;;11.78;100.00;101126.94;6274286;22;19999;-84
2022/10/14 04:41:11;;;;;;;21.20;16.05;;;;;;;11.77;100.00;101121.69;6301689;22;20093;-83
2022/10/14 04:43:37;;;;;;;21.38;16.25;;;;;;;11.77;100.00;101119.03;6301581;22;20040;-83
2022/10/14 04:46:02;;;;;;;20.67;16.45;;;;;;;11.73;100.00;101110.31;6303427;22;20007;-83
2022/10/14 04:48:27;;;;;;;20.42;16.45;;;;;;;11.75;100.00;101116.44;6276813;22;20011;-83
2022/10/14 04:50:53;;;;;;;20.73;16.83;;;;;;;11.78;100.00;101120.75;6306735;22;20010;-83
2022/10/14 04:53:19;;;;;;;22.38;16.88;;;;;;;11.77;100.00;101117.22;6303248;22;20073;-82
2022/10/14 04:55:45;;;;;;;24.38;17.00;;;;;;;11.76;100.00;101115.50;6300704;22;20003;-84
2022/10/14 04:58:11;;;;;;;20.02;16.52;;;;;;;11.76;100.00;101107.50;6299738;22;20110;-84
2022/10/14 05:00:37;;;;;;;20.30;16.38;;;;;;;11.77;100.00;101105.69;6300713;22;20039;-84
2022/10/14 05:03:02;;;;;;;23.80;17.45;;;;;;;11.74;100.00;101104.03;6303016;22;20420;-83
2022/10/14 05:05:27;;;;;;;21.75;15.82;;;;;;;11.79;100.00;101107.34;6274313;22;20007;-84
2022/10/14 05:07:53;;;;;;;20.55;16.35;;;;;;;11.79;100.00;101107.34;6303144;22;20052;-84
2022/10/14 05:10:18;;;;;;;22.38;15.82;;;;;;;11.79;100.00;101106.47;6301443;22;20003;-86
2022/10/14 05:12:43;;;;;;;20.05;16.48;;;;;;;11.80;100.00;101103.72;6302100;22;20009;-84
2022/10/14 05:15:10;;;;;;;20.98;16.23;;;;;;;11.84;100.00;101104.47;6272789;22;20412;-84
2022/10/14 05:17:36;;;;;;;17.70;15.80;;;;;;;11.78;100.00;101083.41;6302911;22;20031;-84
2022/10/14 05:20:02;;;;;;;19.65;15.18;;;;;;;11.83;100.00;101087.63;6303863;22;20003;-84
2022/10/14 05:22:27;;;;;;;18.55;14.93;;;;;;;11.83;100.00;101084.06;6303604;22;20071;-83
2022/10/14 05:24:53;;;;;;;17.40;14.27;;;;;;;11.83;100.00;101081.38;6301617;22;20437;-83
2022/10/14 05:27:18;;;;;;;16.02;14.10;;;;;;;11.80;100.00;101074.41;6302018;22;20007;-84
2022/10/14 05:29:43;;;;;;;18.48;15.00;;;;;;;11.82;100.00;101080.50;6276055;22;20003;-84
2022/10/14 05:32:08;;;;;;;21.10;14.88;;;;;;;11.83;100.00;101079.63;6301837;22;20031;-85
2022/10/14 05:34:34;;;;;;;18.77;14.77;;;;;;;11.82;100.00;101068.97;6301331;22;20015;-85
2022/10/14 05:37:00;;;;;;;19.92;14.57;;;;;;;11.81;100.00;101064.59;6303742;22;20074;-85
2022/10/14 05:39:25;;;;;;;16.67;13.80;;;;;;;11.83;100.00;101057.38;6303552;22;20018;-83
2022/10/14 05:41:50;;;;;;;17.45;14.75;;;;;;;11.82;100.00;101061.81;6303195;22;20011;-85
2022/10/14 05:44:16;;;;;;;18.60;14.48;;;;;;;11.73;100.00;101046.31;6302741;22;20094;-84
2022/10/14 05:46:42;;;;;;;17.48;14.40;;;;;;;11.80;100.00;101057.53;6305493;22;20038;-83
2022/10/14 05:49:09;;;;;;;17.13;13.57;;;;;;;11.81;100.00;101057.44;6276459;22;20006;-84
2022/10/14 05:51:34;;;;;;;17.77;14.10;;;;;;;11.80;100.00;101047.72;6304241;22;20425;-84
2022/10/14 05:53:59;;;;;;;18.92;14.13;;;;;;;11.80;100.00;101047.72;6303732;22;20010;-85
2022/10/14 05:56:25;;;;;;;17.25;14.05;;;;;;;11.84;100.00;101045.81;6309652;22;20384;-84
2022/10/14 05:58:50;;;;;;;15.73;13.77;;;;;;;11.84;100.00;101045.81;6311035;22;19999;-85
2022/10/14 06:01:15;;;;;;;16.63;13.80;;;;;;;11.82;100.00;101045.81;6309544;22;20019;-84
2022/10/14 06:03:41;;;;;;;18.52;14.20;;;;;;;11.85;100.00;101042.19;6309728;22;20034;-84
2022/10/14 06:06:11;;;;;;;17.67;13.63;;;;;;;11.86;100.00;101043.91;6281951;22;20010;-85
2022/10/14 06:08:37;;;;;;;16.00;13.05;;;;;;;11.86;100.00;101039.41;6312880;22;20314;-85
2022/10/14 06:11:06;;;;;;;17.83;13.93;;;;;;;11.86;100.00;101046.56;6279884;22;20026;-85
2022/10/14 06:13:32;;;;;;;16.52;14.45;;;;;;;11.87;100.00;101040.28;6305167;22;20014;-84
2022/10/14 06:16:05;;;;;;;15.70;13.75;;;;;;;11.87;100.00;101038.50;6303543;22;20341;-83
2022/10/14 06:18:31;;;;;;;18.42;13.98;;;;;;;11.90;100.00;101035.66;6276277;22;20332;-85
2022/10/14 06:20:56;;;;;;;15.85;13.00;;;;;;;11.90;100.00;101024.97;6304657;22;20483;-84
2022/10/14 06:23:21;;;;;;;17.60;14.02;;;;;;;11.92;100.00;101028.44;6304673;22;20089;-85
2022/10/14 06:25:47;;;;;;;15.90;13.13;;;;;;;11.89;100.00;101019.75;6303888;22;20013;-84
2022/10/14 06:28:12;;;;;;;17.65;14.05;;;;;;;11.96;100.00;101029.16;6304521;22;20013;-84
2022/10/14 06:30:37;;;;;;;17.52;13.98;;;;;;;11.96;100.00;101035.34;6317872;22;20014;-83
2022/10/14 06:33:03;;;;;;;17.77;14.07;;;;;;;11.96;100.00;101022.00;6302509;22;20005;-85
2022/10/14 06:35:28;;;;;;;17.27;14.10;;;;;;;11.99;100.00;101036.97;6322484;22;20483;-85
2022/10/14 06:37:53;;;;;;;21.52;14.18;;;;;;;11.99;100.00;101034.28;6322386;22;20007;-86
2022/10/14 06:40:19;;;;;;;17.50;14.43;;;;;;;12.00;100.00;101025.38;6313666;22;20003;-85
2022/10/14 06:42:44;;;;;;;18.92;14.65;;;;;;;12.02;100.00;101027.94;6310344;22;20472;-84
2022/10/14 06:45:10;;;;;;;18.70;14.85;;;;;;;12.05;100.00;101027.78;6283809;22;19994;-85
2022/10/14 06:47:35;;;;;;;18.13;14.90;;;;;;;12.07;100.00;101028.56;6306978;22;20007;-86
2022/10/14 06:50:00;;;;;;;18.25;14.60;;;;;;;12.09;100.00;101026.69;6306526;22;20413;-84
2022/10/14 06:52:25;;;;;;;16.52;13.60;;;;;;;12.08;100.00;101016.94;6308691;22;20003;-85
2022/10/14 06:54:51;;;;;;;17.88;14.07;;;;;;;12.16;100.00;101028.03;6308798;22;20054;-85
2022/10/14 06:57:16;;;;;;;17.67;14.02;;;;;;;12.15;100.00;101015.66;6280646;22;20003;-85
2022/10/14 06:59:42;;;;;;;17.08;14.05;;;;;;;12.19;100.00;101023.41;6307069;22;19999;-85
2022/10/14 07:02:08;;;;;;;21.90;14.65;;;;;;;12.19;100.00;101014.53;6307447;22;20019;-85
2022/10/14 07:04:33;;;;;;;16.95;15.05;;;;;;;12.20;100.00;101017.13;6278996;22;20332;-84
2022/10/14 07:06:59;;;;;;;17.58;14.10;;;;;;;12.24;100.00;101009.81;6303510;22;20030;-85
2022/10/14 07:09:24;;;;;;;16.75;13.73;;;;;;;12.30;100.00;101014.81;6303125;22;20010;-85
2022/10/14 07:11:49;;;;;;;15.05;13.45;;;;;;;12.31;100.00;101007.69;6304656;22;19999;-85
2022/10/14 07:14:15;;;;;;;17.20;14.45;;;;;;;12.33;100.00;101001.31;6275694;22;20420;-85
2022/10/14 07:16:42;;;;;;;15.75;14.07;;;;;;;12.37;100.00;101013.53;6304336;22;20002;-85
2022/10/14 07:19:08;;;;;;;14.23;12.73;;;;;;;12.38;100.00;101003.72;6304124;22;20709;-84
2022/10/14 07:21:33;;;;;;;15.45;13.02;;;;;;;12.45;100.00;101005.09;6303856;22;20094;-85
2022/10/14 07:23:58;;;;;;;15.55;13.40;;;;;;;12.48;100.00;101007.59;6276411;22;20031;-84
2022/10/14 07:26:24;;;;;;;14.82;13.07;;;;;;;12.51;100.00;101011.91;6304616;22;20118;-84
2022/10/14 07:28:49;;;;;;;15.20;13.60;;;;;;;12.52;100.00;101016.28;6305446;22;20027;-85
2022/10/14 07:31:14;;;;;;;15.15;13.15;;;;;;;12.54;100.00;101014.38;6306876;22;20003;-85
2022/10/14 07:33:40;;;;;;;16.20;13.73;;;;;;;12.56;100.00;101017.84;6308663;22;20333;-85
2022/10/14 07:36:09;;;;;;;13.73;11.80;;;;;;;12.60;100.00;101016.72;6304769;22;20045;-85
2022/10/14 07:38:34;;;;;;;15.75;12.75;;;;;;;12.65;100.00;101030.66;6306526;22;20033;-85
2022/10/14 07:41:03;;;;;;;13.35;11.95;;;;;;;12.69;100.00;101029.56;6308284;22;20003;-84
2022/10/14 07:43:28;;;;;;;14.50;12.70;;;;;;;12.74;100.00;101027.47;6307108;22;20010;-85
2022/10/14 07:46:00;;;;;;;15.20;12.45;;;;;;;12.74;100.00;101010.59;6309253;22;20332;-85
2022/10/14 07:48:28;;;;;;;13.52;12.10;;;;;;;12.81;100.00;101020.84;6306045;22;19999;-85
2022/10/14 07:50:55;;;;;;;14.10;12.57;;;;;;;12.85;100.00;101009.03;6306969;22;20003;-86
2022/10/14 07:53:22;;;;;;;12.93;11.55;;;;;;;12.87;100.00;101016.94;6305927;22;20013;-85
2022/10/14 07:55:51;;;;;;;15.73;12.40;;;;;;;12.89;100.00;101007.91;6305453;22;20003;-84
2022/10/14 07:58:21;;;;;;;12.77;11.48;;;;;;;12.90;100.00;101001.59;6304603;22;20003;-86
2022/10/14 08:00:47;;;;;;;14.48;11.88;;;;;;;12.98;100.00;101011.00;6308288;22;20003;-85
2022/10/14 08:03:13;;;;;;;15.35;12.68;;;;;;;13.02;100.00;100997.38;6306765;22;20043;-85
2022/10/14 08:05:38;;;;;;;13.38;11.85;;;;;;;13.10;100.00;100999.59;6306007;22;20018;-86
2022/10/14 08:08:03;;;;;;;12.95;11.30;;;;;;;13.17;100.00;100990.28;6305049;22;20007;-85
2022/10/14 08:10:29;;;;;;;13.35;11.95;;;;;;;13.24;100.00;100988.09;6280366;22;20028;-87
2022/10/14 08:12:56;;;;;;;11.98;10.77;;;;;;;13.31;100.00;100990.31;6308116;22;20042;-86
2022/10/14 08:15:22;;;;;;;12.15;10.90;;;;;;;13.36;100.00;101004.28;6306990;22;20006;-87
2022/10/14 08:17:47;;;;;;;12.00;10.80;;;;;;;13.46;100.00;100999.25;6307226;22;20003;-87
2022/10/14 08:20:12;;;;;;;11.70;10.18;;;;;;;13.54;100.00;101001.44;6309162;22;20008;-87
2022/10/14 08:22:38;;;;;;;13.70;10.23;;;;;;;13.55;100.00;100998.69;6309156;22;19999;-88
2022/10/14 08:25:03;;;;;;;11.13;9.60;;;;;;;13.60;100.00;100985.88;6306484;22;20029;-87
2022/10/14 08:27:28;;;;;;;10.73;9.63;;;;;;;13.65;100.00;100977.59;6308013;22;20579;-88
2022/10/14 08:29:54;;;;;;;10.23;9.23;;;;;;;13.64;100.00;100975.88;6281221;22;20010;-88
2022/10/14 08:32:19;;;;;;;10.57;9.57;;;;;;;13.68;100.00;100978.25;6279838;22;20069;-88
2022/10/14 08:34:44;;;;;;;11.02;9.63;;;;;;;13.76;100.00;100979.59;6307143;22;20014;-88
2022/10/14 08:37:10;;;;;;;9.30;8.40;;;;;;;13.78;100.00;100975.00;6309767;22;20380;-89
2022/10/14 08:39:36;;;;;;;10.57;9.40;;;;;;;13.78;100.00;100970.50;6311592;22;20057;-88
2022/10/14 08:42:28;;;;;;;9.50;8.57;;;;;;;13.84;100.00;100982.66;6312056;22;20007;-88
2022/10/14 08:45:13;;;;;;;11.32;9.15;;;;;;;13.93;100.00;100982.09;6311783;22;20363;-88
2022/10/14 08:47:43;;;;;;;8.98;8.07;;;;;;;14.00;100.00;100987.91;6312119;22;20324;-88
2022/10/14 08:50:22;;;;;;;12.43;9.80;;;;;;;13.99;100.00;100970.97;6282416;22;20082;-89
2022/10/14 08:52:56;;;;;;;10.65;9.52;;;;;;;14.03;100.00;100977.88;6311824;22;20018;-89
2022/10/14 08:55:44;;;;;;;11.00;9.77;;;;;;;14.09;100.00;100985.53;6310158;22;20034;-89
2022/10/14 08:58:40;;;;;;;10.13;9.10;;;;;;;14.16;100.00;100977.94;6283545;22;20048;-89
2022/10/14 09:01:21;;;;;;;10.55;8.75;;;;;;;14.18;100.00;100986.75;6308181;22;20007;-88
2022/10/14 09:03:46;;;;;;;10.77;9.48;;;;;;;14.19;100.00;100975.06;6282490;22;20038;-88
2022/10/14 09:06:21;;;;;;;11.18;8.82;;;;;;;14.27;100.00;100974.59;6308321;22;20324;-88
2022/10/14 09:08:48;;;;;;;9.90;8.90;;;;;;;14.30;100.00;100969.91;6308100;22;20010;-90
2022/10/14 09:11:17;;;;;;;10.70;9.35;;;;;;;14.34;100.00;100976.78;6309967;22;20052;-88
2022/10/14 09:13:47;;;;;;;10.45;9.45;;;;;;;14.32;100.00;100967.97;6286947;22;20011;-88
2022/10/14 09:16:20;;;;;;;11.43;9.43;;;;;;;14.33;100.00;100972.38;6291749;22;20007;-88
2022/10/14 09:18:52;;;;;;;9.87;8.50;;;;;;;14.33;100.00;100963.47;6317033;22;20004;-88
2022/10/14 09:21:37;;;;;;;10.88;8.90;;;;;;;14.34;100.00;100968.75;6323566;22;19999;-88
2022/10/14 09:24:11;;;;;;;10.25;9.10;;;;;;;14.38;100.00;100970.28;6327138;22;20084;-91
2022/10/14 09:26:42;;;;;;;10.57;9.48;;;;;;;14.37;100.00;100970.34;6330440;22;19995;-88
2022/10/14 09:29:21;;;;;;;12.50;9.65;;;;;;;14.40;100.00;100965.66;6329940;22;20411;-89
2022/10/14 09:31:47;;;;;;;12.32;9.35;;;;;;;14.38;100.00;100962.25;6312040;22;20003;-88
2022/10/14 09:34:22;;;;;;;10.05;8.75;;;;;;;14.41;100.00;100956.66;6311083;22;20046;-89
2022/10/14 09:36:49;;;;;;;10.13;8.93;;;;;;;14.39;100.00;100963.94;6309129;22;19991;-89
2022/10/14 09:39:16;;;;;;;10.38;9.05;;;;;;;14.37;100.00;100963.19;6281350;22;20006;-88
2022/10/14 09:41:43;;;;;;;11.63;9.45;;;;;;;14.36;100.00;100953.44;6309474;22;20082;-88
2022/10/14 09:44:21;;;;;;;9.65;8.55;;;;;;;14.39;100.00;100952.38;6306394;22;20337;-88
2022/10/14 09:46:51;;;;;;;11.35;8.60;;;;;;;14.30;100.00;100956.53;6305870;22;20003;-88
2022/10/14 09:49:22;;;;;;;10.55;8.60;;;;;;;14.16;100.00;100952.03;6306687;22;19999;-89
2022/10/14 09:51:48;;;;;;;9.40;8.48;;;;;;;14.12;100.00;100944.28;6308160;22;20006;-88
2022/10/14 09:54:26;;;;;;;10.02;8.30;;;;;;;14.09;100.00;100947.19;6279804;22;20447;-89
2022/10/14 09:57:04;;;;;;;10.93;8.57;;;;;;;14.15;100.00;100938.75;6307517;22;20003;-89
2022/10/14 09:59:31;;;;;;;10.27;8.13;;;;;;;14.21;100.00;100949.06;6281847;22;20007;-88
2022/10/14 10:02:02;;;;;;;8.90;7.80;;;;;;;14.19;100.00;100941.13;6280810;22;20060;-89
2022/10/14 10:04:31;;;;;;;9.77;7.93;;;;;;;14.23;100.00;100941.81;6306215;22;20050;-89
2022/10/14 10:06:58;;;;;;;9.15;7.53;;;;;;;14.24;100.00;100932.81;6305838;22;20082;-89
2022/10/14 10:09:24;;;;;;;9.05;7.53;;;;;;;14.28;100.00;100933.47;6305911;22;20044;-90
2022/10/14 10:11:50;;;;;;;8.73;7.82;;;;;;;14.35;100.00;100935.66;6306609;22;19999;-89
2022/10/14 10:14:20;;;;;;;10.70;7.97;;;;;;;14.44;100.00;100942.22;6304302;22;20006;-89
2022/10/14 10:16:46;;;;;;;8.68;7.78;;;;;;;14.45;100.00;100935.91;6304245;22;20007;-89
2022/10/14 10:19:26;;;;;;;9.85;7.40;;;;;;;14.44;100.00;100926.16;6304163;22;20010;-89
2022/10/14 10:21:51;;;;;;;8.93;7.30;;;;;;;14.41;100.00;100929.03;6306325;22;20061;-89
2022/10/14 10:24:20;;;;;;;10.23;7.43;;;;;;;14.37;100.00;100931.03;6304365;22;19999;-88
2022/10/14 10:26:47;;;;;;;8.57;6.85;;;;;;;14.35;100.00;100924.09;6308038;22;20439;-90
2022/10/14 10:29:33;;;;;;;9.20;6.47;;;;;;;14.35;100.00;100930.31;6308420;22;20003;-90
2022/10/14 10:32:14;;;;;;;8.70;6.88;;;;;;;14.33;100.00;100932.19;6308056;22;20011;-89
2022/10/14 10:35:11;;;;;;;8.15;6.30;;;;;;;14.36;100.00;100915.09;6307524;22;19999;-89
2022/10/14 10:38:05;;;;;;;6.88;6.20;;;;;;;14.38;100.00;100914.03;6308349;22;20057;-90
2022/10/14 10:40:35;;;;;;;7.47;6.78;;;;;;;14.33;100.00;100912.59;6282107;22;20015;-88
2022/10/14 10:43:47;;;;;;;7.43;6.13;;;;;;;14.25;100.00;100915.78;6279240;22;20018;-89
2022/10/14 10:46:36;;;;;;;7.20;6.50;;;;;;;14.29;100.00;100913.75;6187907;22;20555;-89
2022/10/14 10:49:22;;;;;;;7.10;6.30;;;;;;;14.35;100.00;100910.69;6306454;22;20003;-89
2022/10/14 10:51:54;;;;;;;7.68;5.82;;;;;;;14.50;100.00;100908.84;6328883;22;20004;-89
2022/10/14 10:54:36;;;;;;;6.00;5.35;;;;;;;14.56;100.00;100905.78;6328188;22;19995;-88
2022/10/14 10:57:31;;;;;;;7.40;6.18;;;;;;;14.56;100.00;100905.78;6329915;22;20000;-89
2022/10/14 11:00:01;;;;;;;7.65;5.65;;;;;;;14.45;100.00;100896.59;6323560;22;20014;-87
2022/10/14 11:02:53;;;;;;;7.38;6.18;;;;;;;14.47;100.00;100898.34;6292400;22;20065;-91
2022/10/14 11:05:37;;;;;;;6.70;5.78;;;;;;;14.50;100.00;100900.81;6294685;22;20007;-90
2022/10/14 11:14:38;;;;;;;8.40;6.93;;;;;;;14.50;100.00;100895.47;6285387;22;20090;-89
2022/10/14 11:17:21;;;;;;;9.32;7.50;;;;;;;14.52;100.00;100889.06;6184307;23;20096;-91
2022/10/14 11:20:04;;;;;;;8.88;7.22;;;;;;;14.44;100.00;100892.19;6190907;23;20031;-90